sensor_id;sensor_type;location;lat;lon;timestamp;temperature;humidity
65854;DHT22;52627;48.838;2.402;2023-04-23T00:02:09;13.69;64.80
65854;DHT22;52627;48.838;2.402;2023-04-23T00:04:37;13.66;64.85
65854;DHT22;52627;48.838;2.402;2023-04-23T00:07:05;13.63;64.90
65854;DHT22;52627;48.838;2.402;2023-04-23T00:09:32;13.61;64.96
65854;DHT22;52627;48.838;2.402;2023-04-23T00:12:01;13.58;65.06
65854;DHT22;52627;48.838;2.402;2023-04-23T00:14:28;13.55;65.10
65854;DHT22;52627;48.838;2.402;2023-04-23T00:16:56;13.51;65.19
65854;DHT22;52627;48.838;2.402;2023-04-23T00:19:23;13.49;65.27
65854;DHT22;52627;48.838;2.402;2023-04-23T00:21:50;13.46;65.31
65854;DHT22;52627;48.838;2.402;2023-04-23T00:24:17;13.44;65.39
65854;DHT22;52627;48.838;2.402;2023-04-23T00:26:45;13.41;65.50
65854;DHT22;52627;48.838;2.402;2023-04-23T00:29:12;13.40;65.57
65854;DHT22;52627;48.838;2.402;2023-04-23T00:31:38;13.37;65.66
65854;DHT22;52627;48.838;2.402;2023-04-23T00:34:05;13.35;65.74
65854;DHT22;52627;48.838;2.402;2023-04-23T00:36:32;13.33;65.81
65854;DHT22;52627;48.838;2.402;2023-04-23T00:38:59;13.31;65.88
65854;DHT22;52627;48.838;2.402;2023-04-23T00:41:26;13.28;65.95
65854;DHT22;52627;48.838;2.402;2023-04-23T00:43:54;13.26;66.08
65854;DHT22;52627;48.838;2.402;2023-04-23T00:46:24;13.24;66.19
65854;DHT22;52627;48.838;2.402;2023-04-23T00:48:52;13.22;66.23
65854;DHT22;52627;48.838;2.402;2023-04-23T00:51:20;13.22;66.31
65854;DHT22;52627;48.838;2.402;2023-04-23T00:53:50;13.20;66.40
65854;DHT22;52627;48.838;2.402;2023-04-23T00:56:17;13.19;66.48
65854;DHT22;52627;48.838;2.402;2023-04-23T00:58:44;13.19;66.57
65854;DHT22;52627;48.838;2.402;2023-04-23T01:01:11;13.18;66.63
65854;DHT22;52627;48.838;2.402;2023-04-23T01:03:39;13.16;66.71
65854;DHT22;52627;48.838;2.402;2023-04-23T01:06:08;13.14;66.77
65854;DHT22;52627;48.838;2.402;2023-04-23T01:08:35;13.11;66.89
65854;DHT22;52627;48.838;2.402;2023-04-23T01:11:04;13.09;66.98
65854;DHT22;52627;48.838;2.402;2023-04-23T01:13:31;13.05;67.12
65854;DHT22;52627;48.838;2.402;2023-04-23T01:15:58;13.01;67.20
65854;DHT22;52627;48.838;2.402;2023-04-23T01:18:25;13.00;67.28
65854;DHT22;52627;48.838;2.402;2023-04-23T01:20:52;12.98;67.38
65854;DHT22;52627;48.838;2.402;2023-04-23T01:23:19;12.95;67.51
65854;DHT22;52627;48.838;2.402;2023-04-23T01:25:46;12.90;67.65
65854;DHT22;52627;48.838;2.402;2023-04-23T01:28:13;12.87;67.73
65854;DHT22;52627;48.838;2.402;2023-04-23T01:30:41;12.85;67.86
65854;DHT22;52627;48.838;2.402;2023-04-23T01:33:09;12.82;67.95
65854;DHT22;52627;48.838;2.402;2023-04-23T01:35:37;12.79;68.00
65854;DHT22;52627;48.838;2.402;2023-04-23T01:38:04;12.77;68.10
65854;DHT22;52627;48.838;2.402;2023-04-23T01:40:34;12.72;68.21
65854;DHT22;52627;48.838;2.402;2023-04-23T01:43:02;12.67;68.32
65854;DHT22;52627;48.838;2.402;2023-04-23T01:45:33;12.64;68.40
65854;DHT22;52627;48.838;2.402;2023-04-23T01:48:00;12.61;68.48
65854;DHT22;52627;48.838;2.402;2023-04-23T01:50:27;12.58;68.58
65854;DHT22;52627;48.838;2.402;2023-04-23T01:52:55;12.54;68.68
65854;DHT22;52627;48.838;2.402;2023-04-23T01:55:22;12.51;68.74
65854;DHT22;52627;48.838;2.402;2023-04-23T01:57:49;12.48;68.84
65854;DHT22;52627;48.838;2.402;2023-04-23T02:00:17;12.45;68.97
65854;DHT22;52627;48.838;2.402;2023-04-23T02:02:44;12.39;69.04
65854;DHT22;52627;48.838;2.402;2023-04-23T02:05:13;12.35;69.18
65854;DHT22;52627;48.838;2.402;2023-04-23T02:07:47;12.31;69.26
65854;DHT22;52627;48.838;2.402;2023-04-23T02:10:16;12.27;69.41
65854;DHT22;52627;48.838;2.402;2023-04-23T02:12:44;12.22;69.57
65854;DHT22;52627;48.838;2.402;2023-04-23T02:15:11;12.17;69.78
65854;DHT22;52627;48.838;2.402;2023-04-23T02:17:40;12.11;69.89
65854;DHT22;52627;48.838;2.402;2023-04-23T02:20:07;12.09;70.03
65854;DHT22;52627;48.838;2.402;2023-04-23T02:22:36;12.05;70.13
65854;DHT22;52627;48.838;2.402;2023-04-23T02:25:06;12.03;70.24
65854;DHT22;52627;48.838;2.402;2023-04-23T02:27:34;12.02;70.33
65854;DHT22;52627;48.838;2.402;2023-04-23T02:30:01;11.98;70.42
65854;DHT22;52627;48.838;2.402;2023-04-23T02:32:28;11.95;70.54
65854;DHT22;52627;48.838;2.402;2023-04-23T02:34:56;11.95;70.65
65854;DHT22;52627;48.838;2.402;2023-04-23T02:37:24;11.92;70.81
65854;DHT22;52627;48.838;2.402;2023-04-23T02:39:52;11.88;70.93
65854;DHT22;52627;48.838;2.402;2023-04-23T02:42:19;11.85;71.12
65854;DHT22;52627;48.838;2.402;2023-04-23T02:44:46;11.80;71.22
65854;DHT22;52627;48.838;2.402;2023-04-23T02:47:12;11.77;71.39
65854;DHT22;52627;48.838;2.402;2023-04-23T02:49:39;11.74;71.47
65854;DHT22;52627;48.838;2.402;2023-04-23T02:52:06;11.71;71.59
65854;DHT22;52627;48.838;2.402;2023-04-23T02:54:33;11.68;71.65
65854;DHT22;52627;48.838;2.402;2023-04-23T02:57:02;11.65;71.75
65854;DHT22;52627;48.838;2.402;2023-04-23T02:59:30;11.60;72.07
65854;DHT22;52627;48.838;2.402;2023-04-23T03:01:57;11.53;72.18
65854;DHT22;52627;48.838;2.402;2023-04-23T03:04:24;11.50;72.29
65854;DHT22;52627;48.838;2.402;2023-04-23T03:06:51;11.45;72.44
65854;DHT22;52627;48.838;2.402;2023-04-23T03:09:17;11.43;72.53
65854;DHT22;52627;48.838;2.402;2023-04-23T03:11:44;11.40;72.62
65854;DHT22;52627;48.838;2.402;2023-04-23T03:14:11;11.35;72.74
65854;DHT22;52627;48.838;2.402;2023-04-23T03:16:37;11.32;72.94
65854;DHT22;52627;48.838;2.402;2023-04-23T03:19:04;11.27;73.01
65854;DHT22;52627;48.838;2.402;2023-04-23T03:21:31;11.23;73.15
65854;DHT22;52627;48.838;2.402;2023-04-23T03:23:58;11.20;73.31
65854;DHT22;52627;48.838;2.402;2023-04-23T03:26:24;11.15;73.39
65854;DHT22;52627;48.838;2.402;2023-04-23T03:28:51;11.13;73.49
65854;DHT22;52627;48.838;2.402;2023-04-23T03:31:18;11.08;73.63
65854;DHT22;52627;48.838;2.402;2023-04-23T03:33:45;11.05;73.78
65854;DHT22;52627;48.838;2.402;2023-04-23T03:36:11;11.02;73.88
65854;DHT22;52627;48.838;2.402;2023-04-23T03:38:38;11.00;73.96
65854;DHT22;52627;48.838;2.402;2023-04-23T03:41:05;10.96;74.06
65854;DHT22;52627;48.838;2.402;2023-04-23T03:43:32;10.95;74.11
65854;DHT22;52627;48.838;2.402;2023-04-23T03:45:58;10.92;74.24
65854;DHT22;52627;48.838;2.402;2023-04-23T03:48:25;10.89;74.35
65854;DHT22;52627;48.838;2.402;2023-04-23T03:50:52;10.87;74.44
65854;DHT22;52627;48.838;2.402;2023-04-23T03:53:19;10.85;74.49
65854;DHT22;52627;48.838;2.402;2023-04-23T03:55:45;10.85;74.51
65854;DHT22;52627;48.838;2.402;2023-04-23T03:58:12;10.86;74.56
65854;DHT22;52627;48.838;2.402;2023-04-23T04:00:39;10.86;74.63
65854;DHT22;52627;48.838;2.402;2023-04-23T04:03:06;10.84;74.67
65854;DHT22;52627;48.838;2.402;2023-04-23T04:05:34;10.84;74.75
65854;DHT22;52627;48.838;2.402;2023-04-23T04:08:01;10.81;74.80
65854;DHT22;52627;48.838;2.402;2023-04-23T04:10:29;10.81;74.80
65854;DHT22;52627;48.838;2.402;2023-04-23T04:12:56;10.81;74.92
65854;DHT22;52627;48.838;2.402;2023-04-23T04:15:23;10.78;75.00
65854;DHT22;52627;48.838;2.402;2023-04-23T04:17:49;10.75;75.09
65854;DHT22;52627;48.838;2.402;2023-04-23T04:20:16;10.71;75.18
65854;DHT22;52627;48.838;2.402;2023-04-23T04:22:43;10.68;75.20
65854;DHT22;52627;48.838;2.402;2023-04-23T04:25:10;10.67;75.29
65854;DHT22;52627;48.838;2.402;2023-04-23T04:27:37;10.65;75.34
65854;DHT22;52627;48.838;2.402;2023-04-23T04:30:04;10.63;75.40
65854;DHT22;52627;48.838;2.402;2023-04-23T04:32:32;10.60;75.44
65854;DHT22;52627;48.838;2.402;2023-04-23T04:34:59;10.60;75.51
65854;DHT22;52627;48.838;2.402;2023-04-23T04:37:26;10.58;75.52
65854;DHT22;52627;48.838;2.402;2023-04-23T04:39:53;10.57;75.58
65854;DHT22;52627;48.838;2.402;2023-04-23T04:42:20;10.56;75.62
65854;DHT22;52627;48.838;2.402;2023-04-23T04:44:47;10.55;75.68
65854;DHT22;52627;48.838;2.402;2023-04-23T04:47:14;10.52;75.73
65854;DHT22;52627;48.838;2.402;2023-04-23T04:49:41;10.53;75.77
65854;DHT22;52627;48.838;2.402;2023-04-23T04:52:08;10.51;75.85
65854;DHT22;52627;48.838;2.402;2023-04-23T04:54:35;10.51;75.92
65854;DHT22;52627;48.838;2.402;2023-04-23T04:57:01;10.49;75.96
65854;DHT22;52627;48.838;2.402;2023-04-23T04:59:28;10.51;76.04
65854;DHT22;52627;48.838;2.402;2023-04-23T05:01:55;10.48;76.10
65854;DHT22;52627;48.838;2.402;2023-04-23T05:04:22;10.50;76.12
65854;DHT22;52627;48.838;2.402;2023-04-23T05:06:49;10.51;76.18
65854;DHT22;52627;48.838;2.402;2023-04-23T05:09:16;10.51;76.20
65854;DHT22;52627;48.838;2.402;2023-04-23T05:11:42;10.52;76.23
65854;DHT22;52627;48.838;2.402;2023-04-23T05:14:09;10.54;76.27
65854;DHT22;52627;48.838;2.402;2023-04-23T05:16:36;10.55;76.29
65854;DHT22;52627;48.838;2.402;2023-04-23T05:19:03;10.57;76.30
65854;DHT22;52627;48.838;2.402;2023-04-23T05:21:30;10.59;76.30
65854;DHT22;52627;48.838;2.402;2023-04-23T05:23:56;10.57;76.30
65854;DHT22;52627;48.838;2.402;2023-04-23T05:26:23;10.59;76.35
65854;DHT22;52627;48.838;2.402;2023-04-23T05:28:50;10.57;76.47
65854;DHT22;52627;48.838;2.402;2023-04-23T05:31:17;10.54;76.48
65854;DHT22;52627;48.838;2.402;2023-04-23T05:33:43;10.53;76.53
65854;DHT22;52627;48.838;2.402;2023-04-23T05:36:16;10.53;76.55
65854;DHT22;52627;48.838;2.402;2023-04-23T05:38:43;10.54;76.57
65854;DHT22;52627;48.838;2.402;2023-04-23T05:41:10;10.58;76.55
65854;DHT22;52627;48.838;2.402;2023-04-23T05:43:37;10.61;76.59
65854;DHT22;52627;48.838;2.402;2023-04-23T05:46:04;10.63;76.59
65854;DHT22;52627;48.838;2.402;2023-04-23T05:48:32;10.63;76.61
65854;DHT22;52627;48.838;2.402;2023-04-23T05:51:00;10.62;76.64
65854;DHT22;52627;48.838;2.402;2023-04-23T05:53:27;10.64;76.67
65854;DHT22;52627;48.838;2.402;2023-04-23T05:55:54;10.63;76.70
65854;DHT22;52627;48.838;2.402;2023-04-23T05:58:21;10.64;76.77
65854;DHT22;52627;48.838;2.402;2023-04-23T06:00:48;10.65;76.80
65854;DHT22;52627;48.838;2.402;2023-04-23T06:03:15;10.67;76.80
65854;DHT22;52627;48.838;2.402;2023-04-23T06:05:42;10.68;76.80
65854;DHT22;52627;48.838;2.402;2023-04-23T06:08:09;10.70;76.80
65854;DHT22;52627;48.838;2.402;2023-04-23T06:10:36;10.73;76.80
65854;DHT22;52627;48.838;2.402;2023-04-23T06:13:02;10.74;76.80
65854;DHT22;52627;48.838;2.402;2023-04-23T06:15:29;10.75;76.80
65854;DHT22;52627;48.838;2.402;2023-04-23T06:17:56;10.73;76.81
65854;DHT22;52627;48.838;2.402;2023-04-23T06:20:24;10.75;76.82
65854;DHT22;52627;48.838;2.402;2023-04-23T06:22:51;10.76;76.88
65854;DHT22;52627;48.838;2.402;2023-04-23T06:25:17;10.78;76.90
65854;DHT22;52627;48.838;2.402;2023-04-23T06:27:44;10.81;76.90
65854;DHT22;52627;48.838;2.402;2023-04-23T06:30:12;10.85;76.90
65854;DHT22;52627;48.838;2.402;2023-04-23T06:32:38;10.87;76.92
65854;DHT22;52627;48.838;2.402;2023-04-23T06:35:05;10.90;77.00
65854;DHT22;52627;48.838;2.402;2023-04-23T06:37:34;10.93;77.00
65854;DHT22;52627;48.838;2.402;2023-04-23T06:40:01;10.94;77.00
65854;DHT22;52627;48.838;2.402;2023-04-23T06:42:27;10.96;77.08
65854;DHT22;52627;48.838;2.402;2023-04-23T06:44:55;10.98;77.17
65854;DHT22;52627;48.838;2.402;2023-04-23T06:47:24;11.01;77.23
65854;DHT22;52627;48.838;2.402;2023-04-23T06:49:51;11.03;77.32
65854;DHT22;52627;48.838;2.402;2023-04-23T06:52:17;11.04;77.45
65854;DHT22;52627;48.838;2.402;2023-04-23T06:54:44;11.04;77.57
65854;DHT22;52627;48.838;2.402;2023-04-23T06:57:11;11.04;77.68
65854;DHT22;52627;48.838;2.402;2023-04-23T06:59:38;11.04;77.79
65854;DHT22;52627;48.838;2.402;2023-04-23T07:02:04;11.05;77.88
65854;DHT22;52627;48.838;2.402;2023-04-23T07:04:32;11.05;77.96
65854;DHT22;52627;48.838;2.402;2023-04-23T07:06:58;11.05;78.17
65854;DHT22;52627;48.838;2.402;2023-04-23T07:09:26;11.02;78.31
65854;DHT22;52627;48.838;2.402;2023-04-23T07:11:53;10.98;78.44
65854;DHT22;52627;48.838;2.402;2023-04-23T07:14:20;10.95;78.56
65854;DHT22;52627;48.838;2.402;2023-04-23T07:16:47;10.96;78.70
65854;DHT22;52627;48.838;2.402;2023-04-23T07:19:14;10.96;78.78
65854;DHT22;52627;48.838;2.402;2023-04-23T07:21:41;10.96;78.90
65854;DHT22;52627;48.838;2.402;2023-04-23T07:24:07;10.95;78.99
65854;DHT22;52627;48.838;2.402;2023-04-23T07:26:34;10.94;79.14
65854;DHT22;52627;48.838;2.402;2023-04-23T07:29:02;10.94;79.27
65854;DHT22;52627;48.838;2.402;2023-04-23T07:31:33;10.94;79.38
65854;DHT22;52627;48.838;2.402;2023-04-23T07:33:59;10.94;79.50
65854;DHT22;52627;48.838;2.402;2023-04-23T07:36:26;10.96;79.59
65854;DHT22;52627;48.838;2.402;2023-04-23T07:38:53;10.99;79.71
65854;DHT22;52627;48.838;2.402;2023-04-23T07:41:21;11.02;79.80
65854;DHT22;52627;48.838;2.402;2023-04-23T07:43:47;11.04;79.93
65854;DHT22;52627;48.838;2.402;2023-04-23T07:46:14;11.05;80.05
65854;DHT22;52627;48.838;2.402;2023-04-23T07:48:41;11.05;80.13
65854;DHT22;52627;48.838;2.402;2023-04-23T07:51:08;11.07;80.21
65854;DHT22;52627;48.838;2.402;2023-04-23T07:53:35;11.14;80.30
65854;DHT22;52627;48.838;2.402;2023-04-23T07:56:01;11.22;80.40
65854;DHT22;52627;48.838;2.402;2023-04-23T07:58:28;11.28;80.41
65854;DHT22;52627;48.838;2.402;2023-04-23T08:00:55;11.30;80.45
65854;DHT22;52627;48.838;2.402;2023-04-23T08:03:22;11.31;80.53
65854;DHT22;52627;48.838;2.402;2023-04-23T08:05:49;11.34;80.60
65854;DHT22;52627;48.838;2.402;2023-04-23T08:08:16;11.37;80.70
65854;DHT22;52627;48.838;2.402;2023-04-23T08:10:43;11.40;80.75
65854;DHT22;52627;48.838;2.402;2023-04-23T08:13:11;11.45;80.85
65854;DHT22;52627;48.838;2.402;2023-04-23T08:15:38;11.49;80.89
65854;DHT22;52627;48.838;2.402;2023-04-23T08:18:05;11.52;81.00
65854;DHT22;52627;48.838;2.402;2023-04-23T08:20:31;11.55;81.12
65854;DHT22;52627;48.838;2.402;2023-04-23T08:22:59;11.60;81.20
65854;DHT22;52627;48.838;2.402;2023-04-23T08:25:26;11.67;81.26
65854;DHT22;52627;48.838;2.402;2023-04-23T08:27:53;11.73;81.29
65854;DHT22;52627;48.838;2.402;2023-04-23T08:30:20;11.79;81.34
65854;DHT22;52627;48.838;2.402;2023-04-23T08:32:50;11.81;81.39
65854;DHT22;52627;48.838;2.402;2023-04-23T08:35:21;11.83;81.40
65854;DHT22;52627;48.838;2.402;2023-04-23T08:37:49;11.85;81.47
65854;DHT22;52627;48.838;2.402;2023-04-23T08:40:16;11.89;81.51
65854;DHT22;52627;48.838;2.402;2023-04-23T08:42:53;11.94;81.60
65854;DHT22;52627;48.838;2.402;2023-04-23T08:45:24;11.95;81.70
65854;DHT22;52627;48.838;2.402;2023-04-23T08:47:52;11.96;81.70
65854;DHT22;52627;48.838;2.402;2023-04-23T08:50:28;12.02;81.73
65854;DHT22;52627;48.838;2.402;2023-04-23T08:52:56;12.04;81.78
65854;DHT22;52627;48.838;2.402;2023-04-23T08:55:24;12.08;81.83
65854;DHT22;52627;48.838;2.402;2023-04-23T08:57:51;12.14;81.88
65854;DHT22;52627;48.838;2.402;2023-04-23T09:00:19;12.17;81.90
65854;DHT22;52627;48.838;2.402;2023-04-23T09:02:48;12.19;81.92
65854;DHT22;52627;48.838;2.402;2023-04-23T09:05:16;12.27;82.00
65854;DHT22;52627;48.838;2.402;2023-04-23T09:07:43;12.34;81.98
65854;DHT22;52627;48.838;2.402;2023-04-23T09:10:10;12.41;81.97
65854;DHT22;52627;48.838;2.402;2023-04-23T09:12:42;12.48;81.95
65854;DHT22;52627;48.838;2.402;2023-04-23T09:15:12;12.58;81.91
65854;DHT22;52627;48.838;2.402;2023-04-23T09:17:43;12.69;81.90
65854;DHT22;52627;48.838;2.402;2023-04-23T09:20:12;12.81;81.86
65854;DHT22;52627;48.838;2.402;2023-04-23T09:22:47;12.92;81.70
65854;DHT22;52627;48.838;2.402;2023-04-23T09:25:17;13.00;81.60
65854;DHT22;52627;48.838;2.402;2023-04-23T09:27:46;13.09;81.53
65854;DHT22;52627;48.838;2.402;2023-04-23T09:30:14;13.21;81.51
65854;DHT22;52627;48.838;2.402;2023-04-23T09:32:42;13.31;81.31
65854;DHT22;52627;48.838;2.402;2023-04-23T09:35:15;13.28;81.18
65854;DHT22;52627;48.838;2.402;2023-04-23T09:37:46;13.25;81.14
65854;DHT22;52627;48.838;2.402;2023-04-23T09:40:19;13.24;81.10
65854;DHT22;52627;48.838;2.402;2023-04-23T09:42:49;13.23;80.96
65854;DHT22;52627;48.838;2.402;2023-04-23T09:45:21;13.25;80.80
65854;DHT22;52627;48.838;2.402;2023-04-23T09:47:51;13.24;80.73
65854;DHT22;52627;48.838;2.402;2023-04-23T09:50:30;13.22;80.59
65854;DHT22;52627;48.838;2.402;2023-04-23T09:53:02;13.27;80.60
65854;DHT22;52627;48.838;2.402;2023-04-23T09:55:30;13.34;80.50
65854;DHT22;52627;48.838;2.402;2023-04-23T09:58:04;13.35;80.32
65854;DHT22;52627;48.838;2.402;2023-04-23T10:00:41;13.34;80.26
65854;DHT22;52627;48.838;2.402;2023-04-23T10:03:09;13.33;80.17
65854;DHT22;52627;48.838;2.402;2023-04-23T10:05:38;13.28;79.91
65854;DHT22;52627;48.838;2.402;2023-04-23T10:08:26;13.26;79.83
65854;DHT22;52627;48.838;2.402;2023-04-23T10:10:54;13.20;79.71
65854;DHT22;52627;48.838;2.402;2023-04-23T10:13:40;13.16;79.63
65854;DHT22;52627;48.838;2.402;2023-04-23T10:16:07;13.11;79.36
65854;DHT22;52627;48.838;2.402;2023-04-23T10:18:51;13.07;79.27
65854;DHT22;52627;48.838;2.402;2023-04-23T10:21:20;13.04;79.18
65854;DHT22;52627;48.838;2.402;2023-04-23T10:23:58;13.02;79.11
65854;DHT22;52627;48.838;2.402;2023-04-23T10:26:27;13.03;79.18
65854;DHT22;52627;48.838;2.402;2023-04-23T10:28:57;13.05;79.07
65854;DHT22;52627;48.838;2.402;2023-04-23T10:31:27;13.07;79.02
65854;DHT22;52627;48.838;2.402;2023-04-23T10:33:54;13.10;79.04
65854;DHT22;52627;48.838;2.402;2023-04-23T10:36:25;13.13;78.96
65854;DHT22;52627;48.838;2.402;2023-04-23T10:38:53;13.24;78.90
65854;DHT22;52627;48.838;2.402;2023-04-23T10:41:26;13.31;78.85
65854;DHT22;52627;48.838;2.402;2023-04-23T10:44:08;13.27;78.47
65854;DHT22;52627;48.838;2.402;2023-04-23T10:46:38;13.26;78.41
65854;DHT22;52627;48.838;2.402;2023-04-23T10:49:15;13.32;78.29
65854;DHT22;52627;48.838;2.402;2023-04-23T10:51:44;13.36;78.08
65854;DHT22;52627;48.838;2.402;2023-04-23T10:54:33;13.41;77.97
65854;DHT22;52627;48.838;2.402;2023-04-23T10:57:02;13.49;77.92
65854;DHT22;52627;48.838;2.402;2023-04-23T10:59:31;13.58;77.64
65854;DHT22;52627;48.838;2.402;2023-04-23T11:02:10;13.75;77.30
65854;DHT22;52627;48.838;2.402;2023-04-23T11:04:44;13.87;76.73
65854;DHT22;52627;48.838;2.402;2023-04-23T11:07:13;13.90;76.65
65854;DHT22;52627;48.838;2.402;2023-04-23T11:09:40;13.92;76.47
65854;DHT22;52627;48.838;2.402;2023-04-23T11:12:11;13.93;76.21
65854;DHT22;52627;48.838;2.402;2023-04-23T11:14:50;13.93;76.18
65854;DHT22;52627;48.838;2.402;2023-04-23T11:18:02;13.95;76.08
65854;DHT22;52627;48.838;2.402;2023-04-23T11:20:11;13.94;76.06
65854;DHT22;52627;48.838;2.402;2023-04-23T11:22:42;13.93;75.94
65854;DHT22;52627;48.838;2.402;2023-04-23T11:25:11;13.90;75.66
65854;DHT22;52627;48.838;2.402;2023-04-23T11:27:40;13.86;75.58
65854;DHT22;52627;48.838;2.402;2023-04-23T11:32:53;13.83;75.21
65854;DHT22;52627;48.838;2.402;2023-04-23T11:35:23;13.81;75.23
65854;DHT22;52627;48.838;2.402;2023-04-23T11:37:55;13.81;75.15
65854;DHT22;52627;48.838;2.402;2023-04-23T11:40:22;13.81;75.05
65854;DHT22;52627;48.838;2.402;2023-04-23T11:42:50;13.84;75.11
65854;DHT22;52627;48.838;2.402;2023-04-23T11:45:28;13.87;75.23
65854;DHT22;52627;48.838;2.402;2023-04-23T11:47:56;13.87;75.22
65854;DHT22;52627;48.838;2.402;2023-04-23T11:50:26;13.85;75.38
65854;DHT22;52627;48.838;2.402;2023-04-23T11:52:55;13.79;75.66
65854;DHT22;52627;48.838;2.402;2023-04-23T11:55:22;13.75;75.90
65854;DHT22;52627;48.838;2.402;2023-04-23T11:57:50;13.72;75.99
65854;DHT22;52627;48.838;2.402;2023-04-23T12:00:19;13.70;76.09
65854;DHT22;52627;48.838;2.402;2023-04-23T12:02:58;13.74;76.12
65854;DHT22;52627;48.838;2.402;2023-04-23T12:05:31;13.79;76.12
65854;DHT22;52627;48.838;2.402;2023-04-23T12:08:05;13.82;76.20
65854;DHT22;52627;48.838;2.402;2023-04-23T12:11:02;13.79;76.42
65854;DHT22;52627;48.838;2.402;2023-04-23T12:13:31;13.78;76.69
65854;DHT22;52627;48.838;2.402;2023-04-23T12:16:00;13.77;76.91
65854;DHT22;52627;48.838;2.402;2023-04-23T12:18:30;13.73;77.12
65854;DHT22;52627;48.838;2.402;2023-04-23T12:21:05;13.68;77.38
65854;DHT22;52627;48.838;2.402;2023-04-23T12:23:38;13.60;77.45
65854;DHT22;52627;48.838;2.402;2023-04-23T12:26:11;13.51;77.56
65854;DHT22;52627;48.838;2.402;2023-04-23T12:28:50;13.47;77.69
65854;DHT22;52627;48.838;2.402;2023-04-23T12:31:19;13.44;77.70
65854;DHT22;52627;48.838;2.402;2023-04-23T12:34:04;13.47;77.74
65854;DHT22;52627;48.838;2.402;2023-04-23T12:36:36;13.48;77.72
65854;DHT22;52627;48.838;2.402;2023-04-23T12:42:02;13.53;77.69
65854;DHT22;52627;48.838;2.402;2023-04-23T12:44:35;13.59;77.52
65854;DHT22;52627;48.838;2.402;2023-04-23T12:47:07;13.76;77.48
65854;DHT22;52627;48.838;2.402;2023-04-23T12:49:37;13.95;77.43
65854;DHT22;52627;48.838;2.402;2023-04-23T12:52:06;14.12;77.27
65854;DHT22;52627;48.838;2.402;2023-04-23T12:54:35;14.24;77.01
65854;DHT22;52627;48.838;2.402;2023-04-23T12:57:05;14.28;76.77
65854;DHT22;52627;48.838;2.402;2023-04-23T12:59:37;14.28;76.61
65854;DHT22;52627;48.838;2.402;2023-04-23T13:02:04;14.22;76.29
65854;DHT22;52627;48.838;2.402;2023-04-23T13:04:32;14.17;76.30
65854;DHT22;52627;48.838;2.402;2023-04-23T13:07:01;14.14;76.30
65854;DHT22;52627;48.838;2.402;2023-04-23T13:09:28;14.15;76.29
65854;DHT22;52627;48.838;2.402;2023-04-23T13:11:55;14.24;76.30
65854;DHT22;52627;48.838;2.402;2023-04-23T13:14:22;14.32;76.23
65854;DHT22;52627;48.838;2.402;2023-04-23T13:16:49;14.32;76.13
65854;DHT22;52627;48.838;2.402;2023-04-23T13:19:16;14.29;75.92
65854;DHT22;52627;48.838;2.402;2023-04-23T13:21:44;14.26;75.51
65854;DHT22;52627;48.838;2.402;2023-04-23T13:24:11;14.22;75.24
65854;DHT22;52627;48.838;2.402;2023-04-23T13:26:38;14.18;75.29
65854;DHT22;52627;48.838;2.402;2023-04-23T13:29:04;14.14;75.09
65854;DHT22;52627;48.838;2.402;2023-04-23T13:31:31;14.11;74.88
65854;DHT22;52627;48.838;2.402;2023-04-23T13:33:58;14.08;74.58
65854;DHT22;52627;48.838;2.402;2023-04-23T13:36:28;14.08;74.47
65854;DHT22;52627;48.838;2.402;2023-04-23T13:38:54;14.10;74.17
65854;DHT22;52627;48.838;2.402;2023-04-23T13:41:21;14.15;73.80
65854;DHT22;52627;48.838;2.402;2023-04-23T13:43:48;14.20;73.57
65854;DHT22;52627;48.838;2.402;2023-04-23T13:46:16;14.28;73.35
65854;DHT22;52627;48.838;2.402;2023-04-23T13:48:45;14.34;73.06
65854;DHT22;52627;48.838;2.402;2023-04-23T13:51:11;14.40;72.96
65854;DHT22;52627;48.838;2.402;2023-04-23T13:53:58;14.45;72.72
65854;DHT22;52627;48.838;2.402;2023-04-23T13:56:26;14.46;72.51
65854;DHT22;52627;48.838;2.402;2023-04-23T13:58:52;14.50;72.43
65854;DHT22;52627;48.838;2.402;2023-04-23T14:01:31;14.60;72.31
65854;DHT22;52627;48.838;2.402;2023-04-23T14:03:57;14.73;72.12
65854;DHT22;52627;48.838;2.402;2023-04-23T14:06:24;14.83;71.91
65854;DHT22;52627;48.838;2.402;2023-04-23T14:08:52;14.90;71.73
65854;DHT22;52627;48.838;2.402;2023-04-23T14:11:19;14.90;71.36
65854;DHT22;52627;48.838;2.402;2023-04-23T14:13:47;14.88;71.32
65854;DHT22;52627;48.838;2.402;2023-04-23T14:16:14;14.87;71.20
65854;DHT22;52627;48.838;2.402;2023-04-23T14:18:42;14.88;71.11
65854;DHT22;52627;48.838;2.402;2023-04-23T14:21:09;14.88;70.81
65854;DHT22;52627;48.838;2.402;2023-04-23T14:23:43;14.83;70.70
65854;DHT22;52627;48.838;2.402;2023-04-23T14:26:27;14.80;70.64
65854;DHT22;52627;48.838;2.402;2023-04-23T14:29:27;14.84;70.40
65854;DHT22;52627;48.838;2.402;2023-04-23T14:31:54;14.93;70.34
65854;DHT22;52627;48.838;2.402;2023-04-23T14:34:21;14.97;70.18
65854;DHT22;52627;48.838;2.402;2023-04-23T14:36:48;15.01;70.13
65854;DHT22;52627;48.838;2.402;2023-04-23T14:39:15;15.05;69.99
65854;DHT22;52627;48.838;2.402;2023-04-23T14:41:42;15.15;69.83
65854;DHT22;52627;48.838;2.402;2023-04-23T14:44:09;15.27;69.50
65854;DHT22;52627;48.838;2.402;2023-04-23T14:46:36;15.40;69.31
65854;DHT22;52627;48.838;2.402;2023-04-23T14:49:03;15.54;69.09
65854;DHT22;52627;48.838;2.402;2023-04-23T14:51:30;15.66;69.04
65854;DHT22;52627;48.838;2.402;2023-04-23T14:53:56;15.77;68.89
65854;DHT22;52627;48.838;2.402;2023-04-23T14:56:23;15.85;68.66
65854;DHT22;52627;48.838;2.402;2023-04-23T14:58:50;15.94;68.63
65854;DHT22;52627;48.838;2.402;2023-04-23T15:01:17;16.06;68.47
65854;DHT22;52627;48.838;2.402;2023-04-23T15:03:44;16.15;68.09
65854;DHT22;52627;48.838;2.402;2023-04-23T15:06:11;16.17;67.76
65854;DHT22;52627;48.838;2.402;2023-04-23T15:08:38;16.19;67.67
65854;DHT22;52627;48.838;2.402;2023-04-23T15:11:05;16.24;67.59
65854;DHT22;52627;48.838;2.402;2023-04-23T15:16:34;16.30;67.01
65854;DHT22;52627;48.838;2.402;2023-04-23T15:19:15;16.35;66.82
65854;DHT22;52627;48.838;2.402;2023-04-23T15:21:45;16.40;66.63
65854;DHT22;52627;48.838;2.402;2023-04-23T15:24:13;16.43;66.37
65854;DHT22;52627;48.838;2.402;2023-04-23T15:26:41;16.40;66.09
65854;DHT22;52627;48.838;2.402;2023-04-23T15:29:09;16.39;65.96
65854;DHT22;52627;48.838;2.402;2023-04-23T15:31:36;16.36;65.83
65854;DHT22;52627;48.838;2.402;2023-04-23T15:34:04;16.36;65.77
65854;DHT22;52627;48.838;2.402;2023-04-23T15:36:33;16.41;65.70
65854;DHT22;52627;48.838;2.402;2023-04-23T15:39:04;16.51;65.50
65854;DHT22;52627;48.838;2.402;2023-04-23T15:41:33;16.54;65.35
65854;DHT22;52627;48.838;2.402;2023-04-23T15:44:07;16.54;65.23
65854;DHT22;52627;48.838;2.402;2023-04-23T15:46:36;16.52;65.08
65854;DHT22;52627;48.838;2.402;2023-04-23T15:49:03;16.50;64.67